Time;durP1;ratioP1;P1;durP2;ratioP2;P2;SDS_P1;SDS_P2;PMS_P1;PMS_P2;Temp;Humidity;BMP_temperature;BMP_pressure;BME280_temperature;BME280_humidity;BME280_pressure;Samples;Min_cycle;Max_cycle;Signal;HPM_P1;HPM_P2
2021/12/03 00:01:32;;;;;;;5.13;3.80;;;0.40;99.90;;;;;;5074457;28;20616;-86
2021/12/03 00:03:59;;;;;;;4.43;2.77;;;0.40;99.90;;;;;;5074119;28;20986;-86
2021/12/03 00:06:24;;;;;;;6.33;3.27;;;0.50;99.90;;;;;;5074159;28;20409;-87
2021/12/03 00:08:50;;;;;;;13.20;3.80;;;0.50;99.90;;;;;;5072906;28;20514;-86
2021/12/03 00:11:16;;;;;;;3.90;3.10;;;0.40;99.90;;;;;;5076280;28;20185;-86
2021/12/03 00:13:42;;;;;;;4.80;4.10;;;0.40;99.90;;;;;;5094141;28;20225;-86
2021/12/03 00:16:09;;;;;;;9.60;4.60;;;0.40;99.90;;;;;;5094088;28;20225;-85
2021/12/03 00:18:35;;;;;;;4.20;3.20;;;0.40;99.90;;;;;;5094177;28;20421;-85
2021/12/03 00:21:04;;;;;;;5.47;3.13;;;0.50;99.90;;;;;;5094157;28;20414;-85
2021/12/03 00:23:31;;;;;;;6.80;3.63;;;0.50;99.90;;;;;;5093973;28;20469;-86
2021/12/03 00:26:00;;;;;;;5.60;3.57;;;0.50;99.90;;;;;;5093839;28;20410;-85
2021/12/03 00:28:27;;;;;;;3.23;2.17;;;0.50;99.90;;;;;;5094124;28;20428;-87
2021/12/03 00:30:52;;;;;;;5.77;3.27;;;0.50;99.90;;;;;;5094169;28;20402;-85
2021/12/03 00:33:18;;;;;;;6.70;4.33;;;0.40;99.90;;;;;;5094113;28;20414;-85
2021/12/03 00:35:44;;;;;;;5.27;3.60;;;0.40;99.90;;;;;;5094036;28;20176;-86
2021/12/03 00:38:10;;;;;;;6.83;3.23;;;0.40;99.90;;;;;;5093703;28;20755;-86
2021/12/03 00:40:38;;;;;;;6.00;3.50;;;0.50;99.90;;;;;;5093488;28;20168;-87
2021/12/03 00:43:05;;;;;;;5.17;3.60;;;0.50;99.90;;;;;;5092640;28;20754;-86
2021/12/03 00:45:32;;;;;;;5.20;2.37;;;0.40;99.90;;;;;;5092423;28;20443;-85
2021/12/03 00:48:01;;;;;;;5.83;3.10;;;0.30;99.90;;;;;;5091900;28;20413;-84
2021/12/03 00:50:29;;;;;;;5.07;2.53;;;0.30;99.90;;;;;;5091554;28;20426;-85
2021/12/03 00:52:56;;;;;;;3.00;2.40;;;0.30;99.90;;;;;;5093608;28;20425;-85
2021/12/03 00:55:24;;;;;;;9.60;3.50;;;0.30;99.90;;;;;;5092982;28;20461;-85
2021/12/03 00:57:50;;;;;;;5.03;3.03;;;0.30;99.90;;;;;;5092229;28;20431;-85
2021/12/03 01:00:19;;;;;;;6.23;3.03;;;0.20;99.90;;;;;;5093529;28;20462;-86
2021/12/03 01:02:44;;;;;;;6.40;4.00;;;0.20;99.90;;;;;;5093472;28;20199;-85
2021/12/03 01:05:10;;;;;;;5.43;2.83;;;0.30;99.90;;;;;;5093439;28;20421;-86
2021/12/03 01:07:36;;;;;;;5.90;2.70;;;0.30;99.90;;;;;;5091973;28;20441;-85
2021/12/03 01:10:04;;;;;;;3.00;2.30;;;0.30;99.90;;;;;;5092150;28;20272;-86
2021/12/03 01:12:30;;;;;;;3.67;3.03;;;0.20;99.90;;;;;;5091675;28;20413;-86
2021/12/03 01:14:55;;;;;;;6.00;3.50;;;0.30;99.90;;;;;;5092015;28;20429;-86
2021/12/03 01:17:22;;;;;;;5.77;3.73;;;0.30;99.90;;;;;;5093200;28;20640;-85
2021/12/03 01:19:48;;;;;;;3.00;2.20;;;0.50;99.90;;;;;;5093195;28;20183;-85
2021/12/03 01:22:13;;;;;;;2.20;1.37;;;0.70;99.90;;;;;;5093116;28;20469;-85
2021/12/03 01:24:39;;;;;;;4.17;1.97;;;0.80;99.90;;;;;;5092084;28;20418;-86
2021/12/03 01:27:05;;;;;;;4.73;2.10;;;0.80;99.90;;;;;;5091582;28;20644;-85
2021/12/03 01:29:31;;;;;;;3.50;2.17;;;0.70;99.90;;;;;;5091917;28;20914;-85
2021/12/03 01:31:57;;;;;;;3.00;1.80;;;0.60;99.90;;;;;;5091197;28;20429;-85
2021/12/03 01:34:24;;;;;;;4.20;1.80;;;0.60;99.90;;;;;;5091936;28;20178;-85
2021/12/03 01:36:50;;;;;;;4.93;3.57;;;0.50;99.90;;;;;;5077380;28;20847;-84
2021/12/03 01:39:16;;;;;;;7.50;3.67;;;0.50;99.90;;;;;;5072552;28;20891;-84
2021/12/03 01:41:43;;;;;;;4.70;2.83;;;0.40;99.90;;;;;;5072418;28;20433;-84
2021/12/03 01:44:09;;;;;;;4.23;3.00;;;0.40;99.90;;;;;;5072824;28;20467;-85
2021/12/03 01:46:35;;;;;;;7.07;4.77;;;0.30;99.90;;;;;;5088851;28;20448;-86
2021/12/03 01:49:01;;;;;;;6.53;4.30;;;0.30;99.90;;;;;;5091680;28;20929;-84
2021/12/03 01:51:27;;;;;;;6.37;4.20;;;0.30;99.90;;;;;;5092792;28;20470;-86
2021/12/03 01:53:54;;;;;;;6.43;5.17;;;0.30;99.90;;;;;;5092904;28;20406;-85
2021/12/03 01:56:21;;;;;;;9.10;5.57;;;0.20;99.90;;;;;;5092486;28;20450;-85
2021/12/03 01:58:49;;;;;;;8.20;5.37;;;0.20;99.90;;;;;;5092908;28;20409;-85
2021/12/03 02:01:19;;;;;;;6.07;4.10;;;0.20;99.90;;;;;;5092882;28;20407;-85
2021/12/03 02:03:47;;;;;;;6.97;5.00;;;0.20;99.90;;;;;;5091496;28;20496;-86
2021/12/03 02:06:14;;;;;;;8.80;5.27;;;0.30;99.90;;;;;;5092006;28;20413;-85
2021/12/03 02:08:41;;;;;;;10.10;4.97;;;0.30;99.90;;;;;;5086058;28;20919;-85
2021/12/03 02:11:09;;;;;;;8.07;5.07;;;0.30;99.90;;;;;;5072193;28;20898;-85
2021/12/03 02:13:35;;;;;;;5.60;3.97;;;0.30;99.90;;;;;;5071259;28;20505;-86
2021/12/03 02:16:01;;;;;;;6.40;4.83;;;0.40;99.90;;;;;;5072502;28;20442;-86
2021/12/03 02:18:27;;;;;;;12.67;5.13;;;0.30;99.90;;;;;;5072459;28;20178;-86
2021/12/03 02:20:55;;;;;;;6.30;3.63;;;0.30;99.90;;;;;;5074137;28;20423;-85
2021/12/03 02:23:22;;;;;;;5.73;3.10;;;0.20;99.90;;;;;;5076111;28;20295;-86
2021/12/03 02:25:49;;;;;;;8.20;5.20;;;0.20;99.90;;;;;;5074508;28;20417;-86
2021/12/03 02:28:16;;;;;;;10.40;4.80;;;0.10;99.90;;;;;;5076104;28;20509;-85
2021/12/03 02:30:43;;;;;;;8.07;4.10;;;0.10;99.90;;;;;;5076105;28;20413;-84
2021/12/03 02:33:09;;;;;;;7.83;4.23;;;0.10;99.90;;;;;;5075902;28;20960;-85
2021/12/03 02:35:38;;;;;;;6.27;4.33;;;0.00;99.90;;;;;;5076039;28;20864;-85
2021/12/03 02:38:03;;;;;;;5.20;4.30;;;0.10;99.90;;;;;;5075720;28;20944;-86
2021/12/03 02:40:29;;;;;;;7.37;3.90;;;0.00;99.90;;;;;;5075451;28;20447;-86
2021/12/03 02:42:55;;;;;;;8.00;4.80;;;0.00;99.90;;;;;;5075735;28;20276;-85
2021/12/03 02:45:21;;;;;;;6.77;4.07;;;0.00;99.90;;;;;;5074780;28;20364;-86
2021/12/03 02:47:47;;;;;;;5.17;3.97;;;0.00;99.90;;;;;;5075700;28;20419;-85
2021/12/03 02:50:14;;;;;;;8.33;5.23;;;0.00;99.90;;;;;;5074498;28;20411;-86
2021/12/03 02:52:40;;;;;;;6.67;4.67;;;0.00;99.90;;;;;;5075722;28;20167;-85
2021/12/03 02:55:07;;;;;;;4.50;3.23;;;0.00;99.90;;;;;;5073971;28;20463;-85
2021/12/03 02:57:33;;;;;;;4.67;3.03;;;0.00;99.90;;;;;;5076901;28;20492;-86
2021/12/03 02:59:59;;;;;;;6.57;4.73;;;0.00;99.90;;;;;;5094477;28;20421;-85
2021/12/03 03:02:25;;;;;;;7.20;4.50;;;0.00;99.90;;;;;;5094256;28;20987;-85
2021/12/03 03:04:51;;;;;;;9.80;3.23;;;0.00;99.90;;;;;;5095703;28;20187;-85
2021/12/03 03:07:17;;;;;;;8.70;4.03;;;0.10;99.90;;;;;;5094478;28;20211;-85
2021/12/03 03:09:45;;;;;;;7.43;3.40;;;0.20;99.90;;;;;;5095504;28;20459;-85
2021/12/03 03:12:11;;;;;;;8.13;3.30;;;0.30;99.90;;;;;;5095149;28;20410;-85
2021/12/03 03:14:46;;;;;;;7.63;3.80;;;0.40;99.90;;;;;;5095380;28;20414;-85
2021/12/03 03:17:13;;;;;;;8.67;5.80;;;0.60;99.90;;;;;;5095181;28;20415;-85
2021/12/03 03:19:39;;;;;;;4.83;3.37;;;0.60;99.90;;;;;;5094083;28;20406;-85
2021/12/03 03:22:05;;;;;;;7.83;4.13;;;0.60;99.90;;;;;;5095204;28;20913;-85
2021/12/03 03:24:31;;;;;;;5.17;3.20;;;0.60;99.90;;;;;;5095296;28;20240;-85
2021/12/03 03:26:57;;;;;;;6.33;4.10;;;0.60;99.90;;;;;;5095025;28;20871;-86
2021/12/03 03:29:22;;;;;;;8.27;4.10;;;0.70;99.90;;;;;;5095271;28;20414;-86
2021/12/03 03:31:48;;;;;;;7.43;4.20;;;0.70;99.90;;;;;;5092726;28;20808;-86
2021/12/03 03:34:14;;;;;;;8.43;3.80;;;0.80;99.90;;;;;;5094958;28;20221;-85
2021/12/03 03:36:44;;;;;;;16.47;5.00;;;0.90;99.90;;;;;;5095139;28;20171;-86
2021/12/03 03:39:13;;;;;;;4.53;2.50;;;0.90;99.90;;;;;;5094882;28;20802;-86
2021/12/03 03:41:41;;;;;;;7.10;4.23;;;0.90;99.90;;;;;;5094661;28;20933;-86
2021/12/03 03:44:08;;;;;;;4.20;3.40;;;0.80;99.90;;;;;;5094789;28;20833;-86
2021/12/03 03:46:34;;;;;;;7.13;4.20;;;0.80;99.90;;;;;;5093448;28;20419;-86
2021/12/03 03:49:00;;;;;;;5.43;3.90;;;0.80;99.90;;;;;;5094707;28;20755;-86
2021/12/03 03:51:26;;;;;;;4.40;3.40;;;0.80;99.90;;;;;;5093485;28;20437;-86
2021/12/03 03:53:52;;;;;;;3.33;2.87;;;0.80;99.90;;;;;;5093514;28;20688;-85
2021/12/03 03:56:17;;;;;;;4.53;3.87;;;0.70;99.90;;;;;;5092547;28;20492;-86
2021/12/03 03:58:43;;;;;;;4.93;4.03;;;0.80;99.90;;;;;;5074372;28;20165;-86
2021/12/03 04:01:11;;;;;;;8.13;4.50;;;0.80;99.90;;;;;;5073156;28;20183;-86
2021/12/03 04:03:37;;;;;;;8.00;4.10;;;0.80;99.90;;;;;;5074241;28;20277;-86
2021/12/03 04:06:03;;;;;;;5.97;4.30;;;0.70;99.90;;;;;;5074388;28;20410;-85
2021/12/03 04:08:29;;;;;;;5.50;3.50;;;0.70;99.90;;;;;;5075858;28;20427;-85
2021/12/03 04:10:59;;;;;;;6.40;3.77;;;0.60;99.90;;;;;;5073962;28;20244;-85
2021/12/03 04:13:26;;;;;;;12.03;5.80;;;0.60;99.90;;;;;;5073854;28;20504;-85
2021/12/03 04:15:53;;;;;;;8.27;4.97;;;0.60;99.90;;;;;;5070882;28;20415;-85
2021/12/03 04:18:19;;;;;;;6.40;5.03;;;0.60;99.90;;;;;;5072686;28;20424;-86
2021/12/03 04:20:44;;;;;;;8.30;4.97;;;0.50;99.90;;;;;;5086509;28;20417;-86
2021/12/03 04:23:16;;;;;;;10.40;4.47;;;0.60;99.90;;;;;;5091443;28;20208;-85
2021/12/03 04:25:42;;;;;;;11.83;5.50;;;0.50;99.90;;;;;;5093554;28;20639;-86
2021/12/03 04:28:08;;;;;;;8.00;5.97;;;0.40;99.90;;;;;;5094077;28;20437;-86
2021/12/03 04:30:34;;;;;;;5.83;4.77;;;0.30;99.90;;;;;;5094079;28;20176;-85
2021/12/03 04:32:59;;;;;;;9.37;6.83;;;0.40;99.90;;;;;;5087266;28;20418;-85
2021/12/03 04:35:26;;;;;;;6.97;5.07;;;0.30;99.90;;;;;;5073662;28;20810;-85
2021/12/03 04:37:53;;;;;;;6.53;5.60;;;0.20;99.90;;;;;;5072170;28;20626;-86
2021/12/03 04:40:20;;;;;;;6.90;6.20;;;0.30;99.90;;;;;;5073255;28;20415;-86
2021/12/03 04:42:46;;;;;;;6.20;5.33;;;0.20;99.90;;;;;;5071843;28;20487;-86
2021/12/03 04:45:15;;;;;;;7.63;6.40;;;0.20;99.90;;;;;;5072266;28;20511;-85
2021/12/03 04:47:41;;;;;;;9.73;7.90;;;0.20;99.90;;;;;;5073495;28;20417;-86
2021/12/03 04:50:09;;;;;;;7.03;6.00;;;0.20;99.90;;;;;;5072113;28;20418;-86
2021/12/03 04:52:35;;;;;;;9.17;6.50;;;0.10;99.90;;;;;;5073324;28;20243;-86
2021/12/03 04:55:01;;;;;;;9.13;7.43;;;0.10;99.90;;;;;;5073194;28;20981;-86
2021/12/03 04:57:27;;;;;;;11.20;8.23;;;0.10;99.90;;;;;;5073416;28;20301;-86
2021/12/03 04:59:52;;;;;;;9.70;8.17;;;0.10;99.90;;;;;;5073405;28;20422;-85
2021/12/03 05:02:20;;;;;;;10.60;7.73;;;0.20;99.90;;;;;;5073249;28;20198;-86
2021/12/03 05:04:47;;;;;;;8.80;6.73;;;0.20;99.90;;;;;;5072122;28;20253;-86
2021/12/03 05:07:29;;;;;;;7.07;6.40;;;0.20;99.90;;;;;;5072024;28;20817;-85
2021/12/03 05:09:55;;;;;;;10.17;8.77;;;0.20;99.90;;;;;;5071440;28;20856;-86
2021/12/03 05:12:22;;;;;;;9.23;6.93;;;0.20;99.90;;;;;;5077133;28;20755;-85
2021/12/03 05:14:47;;;;;;;10.70;8.43;;;0.10;99.90;;;;;;5093243;28;20468;-85
2021/12/03 05:17:13;;;;;;;13.67;7.20;;;0.20;99.90;;;;;;5093362;28;20820;-85
2021/12/03 05:19:38;;;;;;;11.83;8.63;;;0.20;99.90;;;;;;5073089;28;20185;-85
2021/12/03 05:22:04;;;;;;;10.87;7.83;;;0.20;99.90;;;;;;5073001;28;20258;-85
2021/12/03 05:24:30;;;;;;;8.20;7.23;;;0.20;99.90;;;;;;5071676;28;20176;-85
2021/12/03 05:26:56;;;;;;;8.37;7.10;;;0.20;99.90;;;;;;5071950;28;20511;-85
2021/12/03 05:29:22;;;;;;;7.53;5.73;;;0.30;99.90;;;;;;5073308;28;20599;-85
2021/12/03 05:31:47;;;;;;;9.67;6.60;;;0.30;99.90;;;;;;5072960;28;20246;-86
2021/12/03 05:34:15;;;;;;;7.17;6.47;;;0.40;99.90;;;;;;5071765;28;20430;-86
2021/12/03 05:36:41;;;;;;;11.43;7.77;;;0.40;99.90;;;;;;5071884;28;20169;-86
2021/12/03 05:39:07;;;;;;;10.87;7.93;;;0.40;99.90;;;;;;5072719;28;20493;-84
2021/12/03 05:41:33;;;;;;;11.43;8.83;;;0.50;99.90;;;;;;5072312;28;20411;-84
2021/12/03 05:43:59;;;;;;;10.00;6.87;;;0.50;99.90;;;;;;5071564;28;20560;-85
2021/12/03 05:46:26;;;;;;;8.33;7.53;;;0.50;99.90;;;;;;5072722;28;20490;-86
2021/12/03 05:48:51;;;;;;;9.87;7.80;;;0.50;99.90;;;;;;5072819;28;20442;-85
2021/12/03 05:51:18;;;;;;;8.23;7.00;;;0.50;99.90;;;;;;5071508;28;20455;-85
2021/12/03 05:53:43;;;;;;;12.33;6.63;;;0.60;99.90;;;;;;5071275;28;20172;-85
2021/12/03 05:56:09;;;;;;;7.90;7.10;;;0.60;99.90;;;;;;5075887;28;20417;-85
2021/12/03 05:58:35;;;;;;;8.37;7.20;;;0.60;99.90;;;;;;5076715;28;20172;-85
2021/12/03 06:01:01;;;;;;;8.67;7.37;;;0.50;99.90;;;;;;5075515;28;20183;-85
2021/12/03 06:03:26;;;;;;;14.93;7.90;;;0.50;99.90;;;;;;5075293;28;20479;-86
2021/12/03 06:05:52;;;;;;;12.13;8.17;;;0.50;99.90;;;;;;5075392;28;20239;-85
2021/12/03 06:08:18;;;;;;;7.97;5.90;;;0.50;99.90;;;;;;5076571;28;20172;-85
2021/12/03 06:10:44;;;;;;;10.97;9.03;;;0.50;99.90;;;;;;5076171;28;20438;-85
2021/12/03 06:13:10;;;;;;;9.80;6.80;;;0.60;99.90;;;;;;5076473;28;20407;-84
2021/12/03 06:15:36;;;;;;;7.67;6.93;;;0.60;99.90;;;;;;5076366;28;20180;-85
2021/12/03 06:18:02;;;;;;;7.87;6.87;;;0.60;99.90;;;;;;5076323;28;20423;-85
2021/12/03 06:20:28;;;;;;;9.60;7.60;;;0.60;99.90;;;;;;5076296;28;20415;-84
2021/12/03 06:22:54;;;;;;;7.97;7.03;;;0.60;99.90;;;;;;5074805;28;20481;-84
2021/12/03 06:25:20;;;;;;;11.27;7.67;;;0.60;99.90;;;;;;5074565;28;20270;-85
2021/12/03 06:27:46;;;;;;;8.00;7.20;;;0.60;99.90;;;;;;5075948;28;20813;-85
2021/12/03 06:30:18;;;;;;;7.70;6.50;;;0.60;99.90;;;;;;5074826;28;20415;-85
2021/12/03 06:32:44;;;;;;;10.50;6.63;;;0.50;99.90;;;;;;5075972;28;20436;-85
2021/12/03 06:35:11;;;;;;;8.67;6.13;;;0.60;99.90;;;;;;5075960;28;20414;-85
2021/12/03 06:37:38;;;;;;;7.67;6.17;;;0.60;99.90;;;;;;5081149;28;20452;-85
2021/12/03 06:40:06;;;;;;;8.20;7.03;;;0.60;99.90;;;;;;5091360;28;20757;-84
2021/12/03 06:42:32;;;;;;;7.70;6.90;;;;;;;;;;5095886;28;20457;-85
2021/12/03 06:44:57;;;;;;;9.10;6.47;;;0.60;99.90;;;;;;5096166;28;20411;-84
2021/12/03 06:47:23;;;;;;;8.00;6.60;;;0.60;99.90;;;;;;5096073;28;20908;-84
2021/12/03 06:49:49;;;;;;;7.67;6.87;;;0.60;99.90;;;;;;5095962;28;20178;-84
2021/12/03 06:52:16;;;;;;;8.40;6.60;;;0.60;99.90;;;;;;5095974;28;20228;-84
2021/12/03 06:54:42;;;;;;;6.13;5.50;;;0.70;99.90;;;;;;5094533;28;20243;-84
2021/12/03 06:57:08;;;;;;;6.93;5.60;;;0.70;99.90;;;;;;5095998;28;20429;-85
2021/12/03 06:59:35;;;;;;;10.17;7.00;;;0.70;99.90;;;;;;5095792;28;20430;-85
2021/12/03 07:02:01;;;;;;;8.03;5.70;;;0.80;99.90;;;;;;5095706;28;20768;-85
2021/12/03 07:04:27;;;;;;;8.30;6.67;;;0.70;99.90;;;;;;5095700;28;20428;-84
2021/12/03 07:06:53;;;;;;;6.50;5.33;;;0.70;99.90;;;;;;5095344;28;20405;-84
2021/12/03 07:09:19;;;;;;;9.97;6.07;;;0.70;99.90;;;;;;5076784;28;20191;-85
2021/12/03 07:11:45;;;;;;;8.40;5.80;;;0.80;99.90;;;;;;5075432;28;20483;-84
2021/12/03 07:14:11;;;;;;;7.77;5.67;;;0.80;99.90;;;;;;5074131;28;20429;-85
2021/12/03 07:16:37;;;;;;;6.07;5.47;;;0.80;99.90;;;;;;5075206;28;20912;-85
2021/12/03 07:19:04;;;;;;;7.30;6.60;;;0.80;99.90;;;;;;5073872;28;20435;-85
2021/12/03 07:21:29;;;;;;;5.73;5.20;;;0.90;99.90;;;;;;5073821;28;20426;-85
2021/12/03 07:23:55;;;;;;;8.97;6.37;;;0.90;99.90;;;;;;5075038;28;20467;-85
2021/12/03 07:26:23;;;;;;;5.80;5.17;;;0.90;99.90;;;;;;5074671;28;20168;-85
2021/12/03 07:28:49;;;;;;;10.63;6.40;;;0.90;99.90;;;;;;5073747;28;20177;-85
2021/12/03 07:31:15;;;;;;;7.13;4.37;;;0.90;99.90;;;;;;5073831;28;20421;-86
2021/12/03 07:33:41;;;;;;;6.90;4.83;;;0.90;99.90;;;;;;5074924;28;20162;-85
2021/12/03 07:36:07;;;;;;;6.90;6.00;;;0.90;99.90;;;;;;5074778;28;20418;-85
2021/12/03 07:38:34;;;;;;;4.17;3.77;;;0.90;99.90;;;;;;5074633;28;20455;-85
2021/12/03 07:41:00;;;;;;;8.07;5.97;;;0.80;99.90;;;;;;5074422;28;20407;-85
2021/12/03 07:43:26;;;;;;;5.40;4.90;;;0.80;99.90;;;;;;5074578;28;20513;-85
2021/12/03 07:45:52;;;;;;;7.00;6.30;;;0.80;99.90;;;;;;5074529;28;20165;-85
2021/12/03 07:48:21;;;;;;;6.13;4.80;;;0.80;99.90;;;;;;5074584;28;20682;-85
2021/12/03 07:50:48;;;;;;;5.97;4.40;;;0.90;99.90;;;;;;5074551;28;20403;-85
2021/12/03 07:53:17;;;;;;;7.73;5.50;;;0.90;99.90;;;;;;5074538;28;20492;-85
2021/12/03 07:55:47;;;;;;;5.43;4.87;;;0.90;99.90;;;;;;5074153;28;20490;-85
2021/12/03 07:58:13;;;;;;;7.27;4.40;;;1.00;99.90;;;;;;5085045;28;20948;-87
2021/12/03 08:00:39;;;;;;;7.93;5.97;;;0.90;99.90;;;;;;5094577;28;20815;-87
2021/12/03 08:03:05;;;;;;;6.30;5.57;;;0.90;99.90;;;;;;5093196;28;20606;-87
2021/12/03 08:05:30;;;;;;;6.17;5.57;;;1.00;99.90;;;;;;5093263;28;20493;-87
2021/12/03 08:07:58;;;;;;;9.97;5.73;;;1.00;99.90;;;;;;5094560;28;20250;-87
2021/12/03 08:10:24;;;;;;;6.60;5.77;;;1.00;99.90;;;;;;5092865;28;20517;-87
2021/12/03 08:12:50;;;;;;;6.80;4.83;;;1.10;99.90;;;;;;5094449;28;20415;-87
2021/12/03 08:15:16;;;;;;;7.43;6.37;;;1.20;99.90;;;;;;5094510;28;20410;-87
2021/12/03 08:17:42;;;;;;;8.87;6.43;;;1.30;99.90;;;;;;5092565;28;20172;-87
2021/12/03 08:20:08;;;;;;;6.60;4.57;;;1.40;99.90;;;;;;5094400;28;20470;-88
2021/12/03 08:22:35;;;;;;;10.20;7.03;;;1.50;99.90;;;;;;5093229;28;20477;-88
2021/12/03 08:25:01;;;;;;;9.80;6.30;;;1.60;99.90;;;;;;5094035;28;20794;-88
2021/12/03 08:27:26;;;;;;;6.10;4.63;;;1.70;99.90;;;;;;5094232;28;20942;-88
2021/12/03 08:29:52;;;;;;;7.30;5.77;;;1.70;99.90;;;;;;5092885;28;20513;-87
2021/12/03 08:32:19;;;;;;;7.50;5.43;;;1.70;99.90;;;;;;5094145;28;20255;-87
2021/12/03 08:34:44;;;;;;;9.83;5.50;;;1.60;99.90;;;;;;5092667;28;20168;-87
2021/12/03 08:37:10;;;;;;;6.40;5.50;;;1.50;99.90;;;;;;5093903;28;20770;-87
2021/12/03 08:39:36;;;;;;;7.63;5.70;;;1.60;99.90;;;;;;5093266;28;20227;-86
2021/12/03 08:42:03;;;;;;;9.80;6.37;;;1.70;99.90;;;;;;5092391;28;20700;-86
2021/12/03 08:44:29;;;;;;;10.17;6.13;;;1.80;99.90;;;;;;5091516;28;20504;-84
2021/12/03 08:47:01;;;;;;;8.90;6.00;;;2.10;99.90;;;;;;5093833;28;20459;-83
2021/12/03 08:49:30;;;;;;;10.07;6.30;;;2.40;99.90;;;;;;5093788;28;20406;-85
2021/12/03 08:57:16;;;;;;;10.97;6.77;;;3.10;99.90;;;;;;5073346;28;20407;-83
2021/12/03 08:59:42;;;;;;;10.70;6.47;;;3.40;99.90;;;;;;5073388;28;20412;-84
2021/12/03 09:02:09;;;;;;;10.00;6.00;;;3.40;99.90;;;;;;5073152;28;20403;-84
2021/12/03 09:04:34;;;;;;;9.53;7.17;;;3.30;99.90;;;;;;5073323;28;20230;-84
2021/12/03 09:07:00;;;;;;;8.70;6.70;;;3.40;99.90;;;;;;5071858;28;20420;-84
2021/12/03 09:09:27;;;;;;;9.03;6.30;;;3.80;99.90;;;;;;5071548;28;20200;-83
2021/12/03 09:11:54;;;;;;;8.60;7.07;;;4.00;99.90;;;;;;5073205;28;20403;-84
2021/12/03 09:17:19;;;;;;;8.20;6.07;;;3.50;99.90;;;;;;5093405;28;20501;-85
2021/12/03 09:19:58;;;;;;;12.93;7.13;;;3.70;99.90;;;;;;5093419;28;20404;-85
2021/12/03 09:22:39;;;;;;;9.13;6.77;;;4.10;99.90;;;;;;5093173;28;20457;-86
2021/12/03 09:25:07;;;;;;;9.00;6.40;;;4.20;99.90;;;;;;5092851;28;20416;-83
2021/12/03 09:27:33;;;;;;;8.93;6.90;;;4.20;99.90;;;;;;5093531;28;20446;-83
2021/12/03 09:29:59;;;;;;;10.97;8.10;;;4.10;99.90;;;;;;5091583;28;20938;-83
2021/12/03 09:32:31;;;;;;;14.67;8.93;;;3.50;99.90;;;;;;5091697;28;20429;-83
2021/12/03 09:34:57;;;;;;;10.23;7.43;;;3.60;99.90;;;;;;5093162;28;20169;-83
2021/12/03 09:37:23;;;;;;;14.57;8.27;;;3.20;99.90;;;;;;5092847;28;20414;-83
2021/12/03 09:39:48;;;;;;;9.57;6.77;;;3.40;99.90;;;;;;5091274;28;20771;-83
2021/12/03 09:42:21;;;;;;;12.97;8.20;;;3.60;99.90;;;;;;5093021;28;20224;-84
2021/12/03 09:44:50;;;;;;;12.40;8.80;;;3.50;99.90;;;;;;5092054;28;20934;-84
2021/12/03 09:47:17;;;;;;;12.90;8.57;;;4.00;99.90;;;;;;5093087;28;20414;-83
2021/12/03 09:49:44;;;;;;;12.87;8.17;;;;;;;;;;5092880;28;20458;-83
2021/12/03 09:55:11;;;;;;;17.03;9.27;;;2.90;99.90;;;;;;5091981;28;20442;-86
2021/12/03 10:00:21;;;;;;;13.23;9.80;;;3.10;99.90;;;;;;5086044;28;20431;-86
2021/12/03 10:34:15;;;;;;;20.17;11.67;;;2.90;99.90;;;;;;5091706;28;21031;-87
2021/12/03 10:47:07;;;;;;;19.50;10.63;;;2.90;99.90;;;;;;5095361;28;20416;-86
2021/12/03 10:49:47;;;;;;;24.47;10.67;;;2.80;99.90;;;;;;5095640;28;20418;-86
2021/12/03 10:52:31;;;;;;;17.43;9.97;;;2.80;99.90;;;;;;5096182;28;20902;-88
2021/12/03 10:55:19;;;;;;;18.23;10.63;;;2.90;99.90;;;;;;5094041;28;20430;-87
2021/12/03 11:06:39;;;;;;;20.80;11.10;;;3.00;99.90;;;;;;5096259;28;20421;-91
2021/12/03 11:28:58;;;;;;;21.03;11.30;;;2.90;99.90;;;;;;5075920;28;20387;-90
2021/12/03 12:39:32;;;;;;;28.27;14.43;;;3.20;99.90;;;;;;5065188;28;20466;-88
2021/12/03 12:45:18;;;;;;;22.03;12.43;;;3.30;99.90;;;;;;5094542;28;20505;-88
2021/12/03 13:01:39;;;;;;;25.60;11.90;;;3.30;99.90;;;;;;5093659;28;20426;-88
2021/12/03 13:07:46;;;;;;;27.30;14.40;;;3.40;99.90;;;;;;5093914;28;20418;-89
2021/12/03 13:41:31;;;;;;;22.60;12.10;;;3.50;99.90;;;;;;5092544;28;20434;-87
2021/12/03 14:10:21;;;;;;;25.83;10.80;;;3.40;99.90;;;;;;5093441;28;20479;-93
2021/12/03 14:37:32;;;;;;;19.77;9.63;;;3.40;99.90;;;;;;5097441;28;20389;-86
2021/12/03 14:45:41;;;;;;;16.97;7.90;;;3.10;99.90;;;;;;5090961;28;20426;-83
2021/12/03 14:48:21;;;;;;;13.70;9.33;;;3.10;99.90;;;;;;5094873;28;20442;-83
2021/12/03 14:51:02;;;;;;;15.13;8.67;;;3.00;99.90;;;;;;5094740;28;20418;-84
2021/12/03 14:56:12;;;;;;;18.47;7.23;;;3.00;99.90;;;;;;5095105;28;20462;-83
2021/12/03 15:06:44;;;;;;;14.97;9.40;;;3.00;99.90;;;;;;5095425;28;20442;-84
2021/12/03 15:22:49;;;;;;;14.40;8.67;;;2.70;99.90;;;;;;5095150;28;20419;-83
2021/12/03 15:25:27;;;;;;;14.90;7.03;;;2.70;99.90;;;;;;5095137;28;20414;-83
2021/12/03 15:28:50;;;;;;;8.70;6.80;;;2.70;99.90;;;;;;5093571;28;20828;-85
2021/12/03 15:35:59;;;;;;;12.10;7.73;;;2.50;99.90;;;;;;5094949;28;20402;-84
2021/12/03 15:38:44;;;;;;;13.20;8.40;;;2.50;99.90;;;;;;5092754;28;20216;-86
2021/12/03 16:19:03;;;;;;;7.60;6.20;;;2.40;99.90;;;;;;5093650;28;20413;-88
2021/12/03 16:21:55;;;;;;;14.93;6.87;;;2.30;99.90;;;;;;5092988;28;20827;-85
2021/12/03 16:56:52;;;;;;;9.80;5.53;;;2.50;99.90;;;;;;5063570;28;20513;-86
2021/12/03 16:59:19;;;;;;;11.63;5.70;;;2.50;99.90;;;;;;5092457;28;20512;-87
2021/12/03 17:01:56;;;;;;;10.13;6.37;;;2.40;99.90;;;;;;5093072;28;20403;-87
2021/12/03 17:12:17;;;;;;;10.57;6.77;;;2.40;99.90;;;;;;5093389;28;20422;-89
2021/12/03 18:00:05;;;;;;;11.87;6.07;;;2.60;99.90;;;;;;5096228;28;20395;-86
2021/12/03 18:02:42;;;;;;;9.20;5.50;;;2.60;99.90;;;;;;5094844;28;20186;-86
2021/12/03 18:10:40;;;;;;;8.43;4.40;;;2.70;99.90;;;;;;5095202;28;20420;-88
2021/12/03 18:43:26;;;;;;;6.10;4.50;;;2.80;99.90;;;;;;5096098;28;20547;-82
2021/12/03 18:49:21;;;;;;;8.37;5.63;;;2.90;99.90;;;;;;5053624;28;20534;-81
2021/12/03 18:56:54;;;;;;;9.30;3.87;;;3.00;99.90;;;;;;5095873;28;20450;-82
2021/12/03 18:59:24;;;;;;;4.47;4.07;;;3.00;99.90;;;;;;5095852;28;20898;-82
2021/12/03 19:01:50;;;;;;;7.90;4.63;;;3.00;99.90;;;;;;5095285;28;20778;-82
2021/12/03 19:04:27;;;;;;;4.63;3.20;;;3.00;99.90;;;;;;5094535;28;20964;-81
2021/12/03 19:07:02;;;;;;;6.57;5.70;;;3.00;99.90;;;;;;5095912;28;20424;-82
2021/12/03 19:09:33;;;;;;;6.23;4.37;;;3.00;99.90;;;;;;5095295;28;20452;-83
2021/12/03 19:14:36;;;;;;;6.17;3.93;;;3.10;99.90;;;;;;5095756;28;20463;-82
2021/12/03 19:17:03;;;;;;;7.53;6.60;;;3.10;99.90;;;;;;5095637;28;20408;-82
2021/12/03 19:19:30;;;;;;;7.50;5.60;;;3.10;99.90;;;;;;5095520;28;20406;-82
2021/12/03 19:21:58;;;;;;;10.80;5.50;;;3.10;99.90;;;;;;5094188;28;20532;-82
2021/12/03 19:24:25;;;;;;;7.40;6.00;;;3.10;99.90;;;;;;5094993;28;20462;-82
2021/12/03 19:26:51;;;;;;;8.00;6.60;;;3.10;99.90;;;;;;5095228;28;20407;-82
2021/12/03 19:29:20;;;;;;;9.10;5.77;;;3.10;99.90;;;;;;5095324;28;20418;-82
2021/12/03 19:31:49;;;;;;;5.03;4.50;;;3.20;99.90;;;;;;5095395;28;20165;-82
2021/12/03 19:34:25;;;;;;;7.33;5.07;;;3.20;99.90;;;;;;5095050;28;20464;-82
2021/12/03 19:36:52;;;;;;;5.33;4.30;;;3.20;99.90;;;;;;5095223;28;20440;-82
2021/12/03 19:39:19;;;;;;;10.03;5.87;;;3.20;99.90;;;;;;5094592;28;20466;-81
2021/12/03 19:44:28;;;;;;;8.37;5.97;;;3.20;99.90;;;;;;5094954;28;20837;-82
2021/12/03 19:46:54;;;;;;;6.30;5.50;;;3.20;99.90;;;;;;5093897;28;20406;-82
2021/12/03 19:52:09;;;;;;;6.20;4.20;;;3.30;99.90;;;;;;5094601;28;20177;-82
2021/12/03 19:54:35;;;;;;;5.97;5.17;;;3.30;99.90;;;;;;5094885;28;20404;-81
2021/12/03 19:57:01;;;;;;;6.73;5.50;;;3.30;99.90;;;;;;5094639;28;20414;-82
2021/12/03 19:59:26;;;;;;;6.77;5.33;;;3.30;99.90;;;;;;5094672;28;20252;-82
2021/12/03 20:01:52;;;;;;;8.00;6.67;;;3.40;99.90;;;;;;5094616;28;20531;-82
2021/12/03 20:04:17;;;;;;;8.83;7.20;;;3.40;99.90;;;;;;5094534;28;20221;-82
2021/12/03 20:06:45;;;;;;;8.23;6.40;;;3.40;99.90;;;;;;5094670;28;20172;-82
2021/12/03 20:09:19;;;;;;;10.53;7.67;;;3.40;99.90;;;;;;5094118;28;20176;-81
2021/12/03 20:11:49;;;;;;;10.03;7.47;;;3.50;99.90;;;;;;5094448;28;20531;-82
2021/12/03 20:14:18;;;;;;;9.60;7.57;;;3.50;99.90;;;;;;5093506;28;20415;-82
2021/12/03 20:16:58;;;;;;;10.97;8.93;;;3.50;99.90;;;;;;5094294;28;20410;-82
2021/12/03 20:21:58;;;;;;;12.83;8.20;;;3.50;99.90;;;;;;5094055;28;20445;-82
2021/12/03 20:24:32;;;;;;;8.57;7.37;;;3.50;99.90;;;;;;5092956;28;20557;-82
2021/12/03 20:27:05;;;;;;;11.30;7.10;;;3.60;99.90;;;;;;5094244;28;20544;-82
2021/12/03 20:39:46;;;;;;;10.73;8.83;;;3.60;99.90;;;;;;5093900;28;20454;-82
2021/12/03 20:42:25;;;;;;;14.20;8.40;;;3.60;99.90;;;;;;5093825;28;20430;-82
2021/12/03 21:07:59;;;;;;;10.50;9.40;;;3.60;99.90;;;;;;5093471;28;20418;-82
2021/12/03 21:10:52;;;;;;;11.30;8.70;;;3.70;99.90;;;;;;5093497;28;20411;-83
2021/12/03 21:23:45;;;;;;;13.43;9.90;;;3.70;99.90;;;;;;5091254;28;20259;-80
2021/12/03 21:26:16;;;;;;;12.93;10.53;;;3.80;99.90;;;;;;5092661;28;20422;-80
2021/12/03 21:39:26;;;;;;;12.20;8.97;;;3.80;99.90;;;;;;5092909;28;20814;-81
2021/12/03 21:41:51;;;;;;;11.00;8.20;;;3.80;99.90;;;;;;5093078;28;20410;-81